메인 페이지
METAR-TAF:

METAR-TAF

공항 :

베이루트, 레바논

위도: 33-49N, 경도: 035-29E, 고도: 29m

현재 날씨관측

예보는 5 시간 24분 전, 14:00시(UTC)에 발표되었습니다.
서남서10kt
온도 29°C
습도 62%
기압 1013 hPa
시정: 8000m
고도 2600ft 상공 구름 보통

METAR: OLBA 201400Z 24010KT 8000 SCT026 29/21 Q1013 NOSIG

시각: 22:24 (19:24 UTC)

예보

예보는 3 시간 24분 전, 16:00시(UTC)에 발표되었습니다.
예보 대상 시간: 20일 18시부터 21일 24시까지 (UTC)
10kt
시정: 8000m
고도 2600ft 상공 구름 보통
전환 중
21일 06시부터 21일 09시까지 (UTC)
남서10kt
고도 2600ft 상공 구름 많음
전환 중
21일 18시부터 21일 21시까지 (UTC)
8kt
시정 10km 이상
고도 2600ft 상공 구름 보통

TAF: OLBA 201600Z 2018/2124 18010KT 8000 SCT026 BECMG 2106/2109 22010KT BKN026 BECMG 2118/2121 19008KT 9999 SCT026

4,000개 이상의 공항 관측 자료 및 예보 (METAR 및 TAF 보고).

지도상에서 검색 가능한 기상관측소가 노란 점과 빨간 점으로 표시되어 있습니다.

기상관측소 명을 보려면 표시 위로 마우스를 이동하세요.

날씨 관측과 예보를 보려면 클릭하세요.

지도 변경 : 확대하려면 엑스 표시가 있는 녹색 버튼, 축소하려면 빼기 표시가 있는 녹색 버튼, 다음 페이지의 지도를 보려면 녹색 화살표를 클릭하세요.


METAR-TAF: